M I D A S
Marine Information and Data Acquisition System
Tripno 309 of the Zeeleeuw from 2002-08-23 06:30:27 to 2002-08-23 13:35:26
Back to CruiseResearch ActivitiesStationsMapUnderway DataData graphs

EquipmentUnitsComment
TimeDGPSUTC
LatitudeDGPSDM.mWGS84
LongitudeDGPSDM.mWGS84
HeadingGyrodeg 
SOGDGPSknotsSpeed over ground
COGDGPSdegCourse over ground
DepthEcho soundermeters200 kHz
Missing or incorrect values are displayed as -999
Navigation data collected by the RV Zeeleeuw from 2002-08-23 06:30:27 to 2002-08-23 13:35:26
                                                                                    Next 1000 lines
Time Latitude Longitude Heading SOG COG Depth
2002-08-23 06:30:33 51°13.664 2°55.947 106.3 1.2 291.4 6.8
2002-08-23 06:30:38 51°13.665 2°55.944 105.8 1.4 289.5 -999
2002-08-23 06:30:43 51°13.666 2°55.941 105.5 1.6 288.2 -999
2002-08-23 06:30:49 51°13.667 2°55.936 105 1.8 287.3 -999
2002-08-23 06:30:54 51°13.667 2°55.932 104.5 1.9 286.8 -999
2002-08-23 06:30:59 51°13.668 2°55.927 104 2 284.1 -999
2002-08-23 06:31:03 51°13.669 2°55.924 103.5 2.2 284.7 -999
2002-08-23 06:31:09 51°13.67 2°55.918 103.2 2.3 285.9 -999
2002-08-23 06:31:14 51°13.671 2°55.913 102.5 2.3 285.8 -999
2002-08-23 06:31:19 51°13.672 2°55.907 101.7 2.4 285.8 -999
2002-08-23 06:31:23 51°13.673 2°55.903 100.5 2.4 285.5 -999
2002-08-23 06:31:29 51°13.674 2°55.896 99.2 2.5 284.9 -999
2002-08-23 06:31:34 51°13.675 2°55.891 97.8 2.6 284 -999
2002-08-23 06:31:39 51°13.675 2°55.885 96.5 2.6 283 -999
2002-08-23 06:31:44 51°13.676 2°55.879 95.3 2.6 282.2 -999
2002-08-23 06:31:49 51°13.677 2°55.874 94 2.6 281.9 -999
2002-08-23 06:31:54 51°13.678 2°55.868 92.7 2.6 281.1 -999
2002-08-23 06:31:59 51°13.678 2°55.863 91.7 2.5 280.1 -999
2002-08-23 06:32:03 51°13.679 2°55.858 90.7 2.6 280 9
2002-08-23 06:32:11 51°13.68 2°55.849 89.2 0.9 280.2 9.1
2002-08-23 06:32:18 51°13.68 2°55.841 87.3 1.7 276.4 9.2
2002-08-23 06:32:22 51°13.68 2°55.836 86 2.3 275.7 9.3
2002-08-23 06:32:27 51°13.68 2°55.83 84.2 2.8 274.4 -999
2002-08-23 06:32:33 51°13.68 2°55.823 81.8 2.8 272.7 -999
2002-08-23 06:32:38 51°13.68 2°55.816 79.7 2.8 270.6 -999
2002-08-23 06:32:43 51°13.68 2°55.81 77.3 2.8 268.9 -999
2002-08-23 06:32:47 51°13.68 2°55.805 75 2.7 265.6 -999
2002-08-23 06:32:53 51°13.68 2°55.798 72.5 2.6 263.6 9.1
2002-08-23 06:32:58 51°13.679 2°55.792 70.5 2.5 261.2 9.4
2002-08-23 06:33:02 51°13.679 2°55.788 68.7 2.4 259.2 9.6
2002-08-23 06:33:07 51°13.678 2°55.783 66.8 2.3 256.7 9.7
2002-08-23 06:33:12 51°13.677 2°55.779 65.2 2.2 254.9 9.9
2002-08-23 06:33:17 51°13.676 2°55.774 63.2 2.1 253 10
2002-08-23 06:33:22 51°13.675 2°55.77 61.7 2 251.4 10
2002-08-23 06:33:27 51°13.674 2°55.767 60.2 1.9 249.1 10
2002-08-23 06:33:31 51°13.674 2°55.764 58.8 1.8 246.8 9.9
2002-08-23 06:33:37 51°13.672 2°55.76 57.5 1.7 244.9 10
2002-08-23 06:33:42 51°13.671 2°55.757 56.3 1.6 243.8 9.8
2002-08-23 06:33:47 51°13.67 2°55.754 55.3 1.5 241.3 9.7
2002-08-23 06:33:51 51°13.67 2°55.752 54.5 1.4 240.6 9.6
2002-08-23 06:33:57 51°13.669 2°55.749 53.8 1.2 239.5 9.7
2002-08-23 06:34:02 51°13.668 2°55.748 52.7 1.1 239.6 9.7
2002-08-23 06:34:06 51°13.668 2°55.746 51.3 0.8 241 9.7
2002-08-23 06:34:11 51°13.667 2°55.745 49.3 0.6 242.8 9.7
2002-08-23 06:34:17 51°13.667 2°55.744 47.5 0.4 246.4 9.7
2002-08-23 06:34:22 51°13.667 2°55.744 45.5 0.2 254.4 9.7
2002-08-23 06:34:27 51°13.668 2°55.744 43.5 0.1 302.4 9.7
2002-08-23 06:34:31 51°13.668 2°55.744 41.2 0.2 355.5 9.8
2002-08-23 06:34:37 51°13.669 2°55.744 38.5 0.4 16.1 9.8
2002-08-23 06:34:42 51°13.669 2°55.745 35.7 0.5 18.4 9.9
2002-08-23 06:34:47 51°13.671 2°55.745 32.3 0.7 19.9 9.9
2002-08-23 06:34:51 51°13.672 2°55.746 28.3 1 18.4 10
2002-08-23 06:34:56 51°13.674 2°55.747 23.3 1.3 14.8 10.2
2002-08-23 06:35:02 51°13.676 2°55.748 18.2 1.5 11.8 10.9
2002-08-23 06:35:07 51°13.679 2°55.748 11.5 1.9 7.4 11.7
2002-08-23 06:35:11 51°13.682 2°55.748 5.2 2.2 1.1 12.3
2002-08-23 06:35:17 51°13.686 2°55.747 357.7 2.6 355.3 12.2
2002-08-23 06:35:22 51°13.69 2°55.746 351.3 2.9 350.5 12.3
2002-08-23 06:35:27 51°13.695 2°55.744 344.7 3.3 344.6 12
2002-08-23 06:35:30 51°13.697 2°55.742 340 3.7 339.3 12.2
2002-08-23 06:35:37 51°13.705 2°55.737 337.7 4.1 337 11.5
2002-08-23 06:35:42 51°13.71 2°55.732 336.5 4.3 335 10.8
2002-08-23 06:35:46 51°13.715 2°55.729 336.2 4.8 333.4 9.7
2002-08-23 06:35:51 51°13.721 2°55.723 335.5 5 332.2 9.4
2002-08-23 06:35:57 51°13.729 2°55.716 334.7 5.3 330.9 9
2002-08-23 06:36:01 51°13.735 2°55.712 333.7 5.6 330.8 8.8
2002-08-23 06:36:07 51°13.743 2°55.703 333.3 5.8 329.7 8.6
2002-08-23 06:36:11 51°13.749 2°55.698 333.7 6 329.5 8.7
2002-08-23 06:36:17 51°13.757 2°55.69 334 6.2 330 8.8
2002-08-23 06:36:22 51°13.765 2°55.683 333.8 6.4 330.2 8.8
2002-08-23 06:36:27 51°13.773 2°55.675 334 6.6 330.7 8.8
2002-08-23 06:36:30 51°13.777 2°55.671 334.5 6.7 331.1 9.1
2002-08-23 06:36:35 51°13.786 2°55.663 335.2 6.9 331.6 9.3
2002-08-23 06:36:41 51°13.796 2°55.655 335.7 7 332.1 9.5
2002-08-23 06:36:47 51°13.807 2°55.646 336.5 7.1 332.8 9.4
2002-08-23 06:36:52 51°13.816 2°55.639 337.2 7.2 333.9 9.5
2002-08-23 06:36:57 51°13.825 2°55.632 338 7.3 334.7 9.3
2002-08-23 06:37:02 51°13.834 2°55.626 338.8 7.4 335.8 9.4
2002-08-23 06:37:07 51°13.844 2°55.62 339 7.4 336.2 9
2002-08-23 06:37:11 51°13.852 2°55.615 338.8 7.5 336.4 8.8
2002-08-23 06:37:14 51°13.858 2°55.611 339.2 7.6 336.2 8.5
2002-08-23 06:37:22 51°13.874 2°55.6 339.3 7.6 336.5 8.7
2002-08-23 06:37:26 51°13.882 2°55.595 338.5 7.7 335.9 9.1
2002-08-23 06:37:31 51°13.891 2°55.587 338 7.7 335.4 9.2
2002-08-23 06:37:37 51°13.903 2°55.579 337.5 7.8 335 9
2002-08-23 06:37:41 51°13.911 2°55.573 338 7.8 334.7 9.6
2002-08-23 06:37:47 51°13.923 2°55.565 338.7 7.8 335.2 9.2
2002-08-23 06:37:51 51°13.931 2°55.559 338.5 7.8 335.3 10
2002-08-23 06:37:57 51°13.943 2°55.55 338.3 7.9 335.4 9
2002-08-23 06:38:02 51°13.953 2°55.543 338.7 7.9 335.9 9.2
2002-08-23 06:38:06 51°13.961 2°55.537 339.7 7.9 336.4 9.6
2002-08-23 06:38:12 51°13.973 2°55.529 340 7.9 337.3 9.1
2002-08-23 06:38:17 51°13.983 2°55.522 339.5 7.9 337.5 9.3
2002-08-23 06:38:22 51°13.993 2°55.515 339.7 7.9 337.7 9.2
2002-08-23 06:38:26 51°14.001 2°55.509 340 8 337.4 9.2
2002-08-23 06:38:31 51°14.011 2°55.503 339.7 8 337.1 9.7
2002-08-23 06:38:37 51°14.024 2°55.494 339.3 8 336.7 9.6
2002-08-23 06:38:42 51°14.034 2°55.487 338.5 8 336.1 9.7
2002-08-23 06:38:47 51°14.045 2°55.479 338 8 335.6 9.7
2002-08-23 06:38:51 51°14.054 2°55.474 338.2 8 335.2 9.7
2002-08-23 06:38:57 51°14.066 2°55.465 337.8 8 334.7 9.5
2002-08-23 06:39:02 51°14.076 2°55.457 337.2 8 334.1 9.4
2002-08-23 06:39:07 51°14.085 2°55.448 337.2 8 334 9
2002-08-23 06:39:12 51°14.095 2°55.44 337.5 8 334.1 9.8
2002-08-23 06:39:17 51°14.105 2°55.432 337.7 8 334.4 9.7
2002-08-23 06:39:22 51°14.115 2°55.425 337.3 8 334.4 9.2
2002-08-23 06:39:27 51°14.125 2°55.417 337 8 334.1 9.1
2002-08-23 06:39:32 51°14.134 2°55.409 336.5 8 333.8 9.1
2002-08-23 06:39:35 51°14.14 2°55.404 336.2 8 333.4 9.2
2002-08-23 06:39:42 51°14.154 2°55.392 335.7 8 332.9 9.3
2002-08-23 06:39:46 51°14.162 2°55.386 334.7 8 332.3 9.3
2002-08-23 06:39:52 51°14.174 2°55.376 333.3 8 331.2 9.5
2002-08-23 06:39:55 51°14.179 2°55.371 332 8 329.7 9.4
2002-08-23 06:40:02 51°14.193 2°55.358 331.2 8 328.8 9.3
2002-08-23 06:40:07 51°14.202 2°55.349 330.2 8 327.4 9.4
2002-08-23 06:40:12 51°14.211 2°55.339 328.5 7.9 326.1 9.5
2002-08-23 06:40:17 51°14.22 2°55.328 326 8 324 9.4
2002-08-23 06:40:22 51°14.228 2°55.317 323.2 8.1 322 9.6
2002-08-23 06:40:27 51°14.237 2°55.304 320.5 8.3 318.9 9.4
2002-08-23 06:40:32 51°14.245 2°55.291 318.3 8.4 317 9.5
2002-08-23 06:40:36 51°14.252 2°55.28 317.7 8.5 315.3 9.5
2002-08-23 06:40:41 51°14.26 2°55.267 316.5 8.5 314.5 9.3
2002-08-23 06:40:47 51°14.27 2°55.25 314.8 8.7 312.8 9.3
2002-08-23 06:40:51 51°14.276 2°55.238 312.8 8.7 311.3 9.3
2002-08-23 06:40:55 51°14.282 2°55.226 311.3 8.8 309.4 9.3
2002-08-23 06:41:02 51°14.293 2°55.204 311 8.9 308.7 9.3
2002-08-23 06:41:06 51°14.299 2°55.192 311 9 308.2 9.3
2002-08-23 06:41:12 51°14.308 2°55.173 311 9 308.4 9.3
2002-08-23 06:41:17 51°14.316 2°55.157 310.5 9.1 308 9.3
2002-08-23 06:41:22 51°14.323 2°55.141 310.2 9.1 307.8 9.3
2002-08-23 06:41:27 51°14.331 2°55.125 309.8 9.1 307.6 9.1
2002-08-23 06:41:30 51°14.335 2°55.115 309.7 9.1 307.4 9
2002-08-23 06:41:37 51°14.346 2°55.092 309.3 9.2 306.9 9.1
2002-08-23 06:41:42 51°14.353 2°55.076 308.8 9.2 306.5 9.6
2002-08-23 06:41:47 51°14.361 2°55.059 308.3 9.2 306 9.2
2002-08-23 06:41:52 51°14.368 2°55.042 308.2 9.3 305.4 9.2
2002-08-23 06:41:57 51°14.375 2°55.025 308 9.3 305.1 9
2002-08-23 06:42:01 51°14.381 2°55.012 307.3 9.3 304.4 9
2002-08-23 06:42:07 51°14.389 2°54.991 306 9.2 302.6 8.9
2002-08-23 06:42:12 51°14.396 2°54.974 304.8 9.2 301.3 8.9
2002-08-23 06:42:17 51°14.402 2°54.956 303.3 9.2 299.4 9
2002-08-23 06:42:22 51°14.408 2°54.938 302.2 9.2 298.6 9
2002-08-23 06:42:27 51°14.414 2°54.92 301.2 9.2 297.1 9
2002-08-23 06:42:30 51°14.417 2°54.909 300.5 9.2 296.1 9
2002-08-23 06:42:37 51°14.424 2°54.883 299.8 9.2 294.7 9
2002-08-23 06:42:42 51°14.43 2°54.864 298.7 9.2 293.3 9
2002-08-23 06:42:47 51°14.435 2°54.845 297 9.3 291.8 9
2002-08-23 06:42:52 51°14.439 2°54.826 296.3 9.3 290.8 9.1
2002-08-23 06:42:57 51°14.443 2°54.806 295.8 9.4 289.5 9.1
2002-08-23 06:43:01 51°14.447 2°54.79 295.5 9.4 288.9 9.1
2002-08-23 06:43:07 51°14.452 2°54.767 293.7 9.4 287.3 9.1
2002-08-23 06:43:11 51°14.454 2°54.75 291.3 9.5 285.8 9
2002-08-23 06:43:17 51°14.458 2°54.726 288.2 9.5 282.7 9
2002-08-23 06:43:22 51°14.46 2°54.704 285.3 9.6 279.8 9
2002-08-23 06:43:26 51°14.461 2°54.687 282.5 9.6 277.3 9
2002-08-23 06:43:32 51°14.462 2°54.661 279.5 9.7 274.4 8.9
2002-08-23 06:43:37 51°14.462 2°54.64 276.5 9.7 270.8 8.9
2002-08-23 06:43:42 51°14.461 2°54.618 273.5 9.8 268.4 8.9
2002-08-23 06:43:46 51°14.46 2°54.601 270.8 9.8 266.2 8.9
2002-08-23 06:43:51 51°14.459 2°54.579 269.2 9.8 264.4 8.8
2002-08-23 06:43:57 51°14.457 2°54.553 267.3 9.9 262.6 8.9
2002-08-23 06:44:02 51°14.454 2°54.532 265.8 9.9 261.3 8.9
2002-08-23 06:44:07 51°14.452 2°54.51 264.3 9.9 259.8 8.9
2002-08-23 06:44:12 51°14.45 2°54.489 262.8 10 258.9 8.9
2002-08-23 06:44:17 51°14.447 2°54.467 261.8 10 258.5 8.9
2002-08-23 06:44:22 51°14.444 2°54.446 261.7 10 257.9 8.8
2002-08-23 06:44:27 51°14.441 2°54.424 261.8 10 258 8.7
2002-08-23 06:44:31 51°14.439 2°54.407 260.3 10 257 8.7
2002-08-23 06:44:36 51°14.435 2°54.385 258.5 10 255.4 8.6
2002-08-23 06:44:41 51°14.431 2°54.364 256.2 10.1 254.1 8.5
2002-08-23 06:44:47 51°14.426 2°54.338 254.7 10.3 252.4 8.5
2002-08-23 06:44:52 51°14.421 2°54.316 253.8 10.7 250.8 8.5
2002-08-23 06:44:57 51°14.416 2°54.292 253.2 11.1 250.4 8.5
2002-08-23 06:45:02 51°14.41 2°54.268 252.5 11.5 249.9 8.4
2002-08-23 06:45:07 51°14.404 2°54.243 251.7 12 249 8.3
2002-08-23 06:45:11 51°14.399 2°54.222 251.8 12.3 248.9 8.3
2002-08-23 06:45:17 51°14.391 2°54.191 251.8 12.6 248.7 8.3
2002-08-23 06:45:22 51°14.385 2°54.164 251.5 12.9 248.9 8.3
2002-08-23 06:45:27 51°14.378 2°54.136 252 13.3 248.8 8.3
2002-08-23 06:45:31 51°14.373 2°54.113 251.5 13.5 249.3 8.2
2002-08-23 06:45:37 51°14.364 2°54.079 251.7 13.7 249.3 8.2
2002-08-23 06:45:42 51°14.357 2°54.05 251.8 13.8 249.2 8.2
2002-08-23 06:45:47 51°14.351 2°54.021 252.2 14 249.6 8.2
2002-08-23 06:45:52 51°14.343 2°53.992 252 14.2 248.9 8.2
2002-08-23 06:45:54 51°14.34 2°53.98 252 14.3 249.3 8.2
2002-08-23 06:46:02 51°14.329 2°53.933 252 14.3 249.4 8.2
2002-08-23 06:46:07 51°14.322 2°53.903 251.7 14.4 249.2 8.2
2002-08-23 06:46:12 51°14.315 2°53.873 251.5 14.5 248.6 8.2
2002-08-23 06:46:15 51°14.31 2°53.855 250.3 14.5 247.6 8.3
2002-08-23 06:46:21 51°14.301 2°53.819 250 14.6 247.7 8.3
2002-08-23 06:46:26 51°14.292 2°53.79 249.2 14.7 246.1 8.3
2002-08-23 06:46:31 51°14.285 2°53.76 248.7 14.7 246.4 8.3
2002-08-23 06:46:38 51°14.273 2°53.718 248.3 14.7 246.1 8.3
2002-08-23 06:46:42 51°14.266 2°53.695 248.3 14.7 245.6 8.3
2002-08-23 06:46:47 51°14.258 2°53.665 248.8 14.8 246.3 8.3
2002-08-23 06:46:52 51°14.249 2°53.635 249 14.8 246 8.3
2002-08-23 06:46:57 51°14.242 2°53.604 249.2 14.8 246.9 8.3
2002-08-23 06:47:01 51°14.234 2°53.581 248.5 14.8 245.8 8.4
2002-08-23 06:47:07 51°14.225 2°53.545 249 14.8 246.3 8.4
2002-08-23 06:47:11 51°14.218 2°53.521 248 14.8 245.6 8.4
2002-08-23 06:47:15 51°14.211 2°53.497 248.7 14.8 246.2 8.5
2002-08-23 06:47:22 51°14.199 2°53.456 247.8 14.8 245.2 8.4
2002-08-23 06:47:26 51°14.192 2°53.432 247.7 14.9 245.3 8.5
2002-08-23 06:47:30 51°14.185 2°53.408 246.8 14.9 244.4 8.5
2002-08-23 06:47:37 51°14.172 2°53.367 246 14.9 243.6 8.6
2002-08-23 06:47:42 51°14.163 2°53.337 246.3 14.9 243.7 8.6
2002-08-23 06:47:47 51°14.154 2°53.308 246 14.9 243.4 8.6
2002-08-23 06:47:51 51°14.147 2°53.284 246 15 243.7 8.7
2002-08-23 06:47:57 51°14.136 2°53.248 246.3 15 244 8.7
2002-08-23 06:48:02 51°14.127 2°53.218 246.7 15.1 244 8.7
2002-08-23 06:48:07 51°14.118 2°53.187 247.2 15.1 244.9 8.7
2002-08-23 06:48:11 51°14.11 2°53.164 247.2 15.1 244.6 8.8
2002-08-23 06:48:17 51°14.1 2°53.127 247.7 15.1 245.1 8.8
2002-08-23 06:48:22 51°14.091 2°53.097 247.5 15.1 245.1 8.9
2002-08-23 06:48:27 51°14.082 2°53.066 247.8 15.1 245.2 8.9
2002-08-23 06:48:31 51°14.076 2°53.041 248.2 15.2 245.8 9
2002-08-23 06:48:36 51°14.067 2°53.011 247.8 15.2 245.3 9.1
2002-08-23 06:48:42 51°14.056 2°52.974 248.5 15.2 245.9 9
2002-08-23 06:48:47 51°14.048 2°52.943 248.7 15.3 245.9 9.2
2002-08-23 06:48:51 51°14.041 2°52.918 248.5 15.3 246.3 9.2
2002-08-23 06:48:55 51°14.034 2°52.893 248.3 15.3 245.9 9.3
2002-08-23 06:49:02 51°14.022 2°52.85 248.3 15.4 246 9.3
2002-08-23 06:49:07 51°14.013 2°52.819 248.5 15.4 245.7 9.4
2002-08-23 06:49:12 51°14.004 2°52.788 247.8 15.4 245.5 9.3
2002-08-23 06:49:16 51°13.997 2°52.763 247.7 15.4 245.1 9.3
2002-08-23 06:49:22 51°13.986 2°52.726 247.5 15.4 245.1 9.4
2002-08-23 06:49:27 51°13.977 2°52.695 247.3 15.4 244.7 9.4
2002-08-23 06:49:31 51°13.97 2°52.671 247.2 15.4 244.8 9.4
2002-08-23 06:49:37 51°13.959 2°52.634 247.2 15.4 244.9 9.4
2002-08-23 06:49:42 51°13.95 2°52.603 247.2 15.4 244.8 9.4
2002-08-23 06:49:47 51°13.941 2°52.572 248 15.5 245.6 9.4
2002-08-23 06:49:51 51°13.934 2°52.547 247.7 15.5 244.6 9.5
2002-08-23 06:49:57 51°13.923 2°52.509 248 15.5 245.9 9.6
2002-08-23 06:50:02 51°13.914 2°52.479 247.8 15.4 244.9 9.5
2002-08-23 06:50:07 51°13.905 2°52.448 248.3 15.4 245.5 9.5
2002-08-23 06:50:11 51°13.898 2°52.423 248.7 15.5 245.6 9.6
2002-08-23 06:50:17 51°13.888 2°52.385 248.8 15.4 245.8 9.6
2002-08-23 06:50:22 51°13.879 2°52.355 248 15.4 245.5 9.5
2002-08-23 06:50:27 51°13.87 2°52.324 248.5 15.4 245.5 9.6
2002-08-23 06:50:32 51°13.861 2°52.293 247.8 15.4 245.2 9.6
2002-08-23 06:50:38 51°13.85 2°52.256 248 15.3 245.4 9.5
2002-08-23 06:50:42 51°13.843 2°52.232 247.8 15.3 245 9.5
2002-08-23 06:50:47 51°13.834 2°52.201 247.7 15.3 244.8 9.5
2002-08-23 06:50:51 51°13.827 2°52.176 247.8 15.4 245 9.5
2002-08-23 06:50:57 51°13.816 2°52.139 247.5 15.4 244.5 9.6
2002-08-23 06:51:02 51°13.807 2°52.108 248 15.4 245.5 9.6
2002-08-23 06:51:07 51°13.797 2°52.078 247.7 15.4 244.3 9.5
2002-08-23 06:51:12 51°13.789 2°52.046 247.7 15.3 245.6 9.5
2002-08-23 06:51:17 51°13.779 2°52.017 247.7 15.3 244.7 9.6
2002-08-23 06:51:22 51°13.771 2°51.986 247.7 15.3 245.1 9.6
2002-08-23 06:51:27 51°13.762 2°51.955 247.2 15.3 244.7 9.5
2002-08-23 06:51:31 51°13.755 2°51.93 247.7 15.3 244.8 9.6
2002-08-23 06:51:35 51°13.747 2°51.906 248.2 15.4 245.4 9.6
2002-08-23 06:51:42 51°13.735 2°51.862 248.3 15.4 245.4 9.6
2002-08-23 06:51:46 51°13.728 2°51.838 248.2 15.3 245.4 9.6
2002-08-23 06:51:51 51°13.719 2°51.807 248.2 15.2 245.6 9.6
2002-08-23 06:51:57 51°13.709 2°51.771 247.5 15.2 245.1 9.6
2002-08-23 06:52:02 51°13.699 2°51.74 247.2 15.2 244.4 9.6
2002-08-23 06:52:07 51°13.69 2°51.71 245.7 15.2 243.6 9.4
2002-08-23 06:52:11 51°13.682 2°51.686 245.3 15.3 243.1 9.5
2002-08-23 06:52:16 51°13.673 2°51.656 245.5 15.3 243.1 9.5
2002-08-23 06:52:22 51°13.661 2°51.62 244.5 15.3 242.5 9.6
2002-08-23 06:52:27 51°13.652 2°51.59 245.2 15.2 242.8 9.6
2002-08-23 06:52:31 51°13.643 2°51.567 244.3 15.2 242 9.6
2002-08-23 06:52:37 51°13.632 2°51.53 245 15.3 242.6 9.6
2002-08-23 06:52:42 51°13.622 2°51.5 244.8 15.3 242.8 9.7
2002-08-23 06:52:47 51°13.612 2°51.47 244.5 15.3 242.4 9.6
2002-08-23 06:52:51 51°13.604 2°51.446 245 15.4 243 9.5
2002-08-23 06:52:57 51°13.593 2°51.409 245.2 15.4 243.1 9.6
2002-08-23 06:53:02 51°13.583 2°51.379 244.5 15.3 242.8 9.6
2002-08-23 06:53:07 51°13.574 2°51.349 245.5 15.4 243 9.7
2002-08-23 06:53:12 51°13.563 2°51.319 244.5 15.3 242.5 9.7
2002-08-23 06:53:17 51°13.554 2°51.289 244.7 15.3 242.3 9.7
2002-08-23 06:53:22 51°13.544 2°51.259 244.2 15.4 242.2 9.6
2002-08-23 06:53:27 51°13.534 2°51.228 244.7 15.5 242.5 9.7
2002-08-23 06:53:32 51°13.524 2°51.198 244.7 15.5 242.7 9.7
2002-08-23 06:53:37 51°13.514 2°51.168 244.8 15.5 242.7 9.7
2002-08-23 06:53:42 51°13.505 2°51.137 244.7 15.4 242.9 9.8
2002-08-23 06:53:46 51°13.497 2°51.113 244.3 15.4 242.6 9.7
2002-08-23 06:53:51 51°13.487 2°51.082 244.5 15.4 242.7 9.8
2002-08-23 06:53:57 51°13.475 2°51.046 244.3 15.5 242.5 9.8
2002-08-23 06:54:02 51°13.465 2°51.016 244.5 15.5 242.5 9.8
2002-08-23 06:54:07 51°13.455 2°50.985 244.3 15.5 242.6 9.8
2002-08-23 06:54:11 51°13.447 2°50.961 244.3 15.5 242.2 9.8
2002-08-23 06:54:17 51°13.435 2°50.925 244 15.5 242.7 9.8
2002-08-23 06:54:22 51°13.425 2°50.894 244 15.5 242.3 9.7
2002-08-23 06:54:27 51°13.416 2°50.864 244.3 15.4 242.8 9.7
2002-08-23 06:54:32 51°13.405 2°50.834 243.8 15.4 241.9 9.8
2002-08-23 06:54:37 51°13.395 2°50.804 243.2 15.5 241.7 9.9
2002-08-23 06:54:41 51°13.386 2°50.78 242.3 15.5 241 9.9
2002-08-23 06:54:47 51°13.374 2°50.745 242.3 15.3 240.6 9.9
2002-08-23 06:54:51 51°13.365 2°50.721 241.5 15.3 239.9 9.9
2002-08-23 06:54:57 51°13.353 2°50.685 241.8 15.4 240.5 9.9
2002-08-23 06:55:02 51°13.342 2°50.656 241.5 15.4 240 10
2002-08-23 06:55:06 51°13.334 2°50.632 241.5 15.4 240.2 9.9
2002-08-23 06:55:12 51°13.321 2°50.597 241.8 15.3 240.6 9.9
2002-08-23 06:55:17 51°13.31 2°50.568 241.3 15.3 239.7 9.9
2002-08-23 06:55:22 51°13.3 2°50.539 241.8 15.3 240.1 9.9
2002-08-23 06:55:27 51°13.29 2°50.51 241.8 15.1 239.9 10
2002-08-23 06:55:32 51°13.279 2°50.481 241.3 15 239.9 9.9
2002-08-23 06:55:37 51°13.269 2°50.452 241.8 15.2 240.3 10
2002-08-23 06:55:42 51°13.258 2°50.423 242.2 15.2 240.5 10.1
2002-08-23 06:55:47 51°13.248 2°50.394 241.5 15.1 240.1 10.1
2002-08-23 06:55:52 51°13.238 2°50.365 242 15 240.4 10.1
2002-08-23 06:55:57 51°13.228 2°50.336 242.3 15 240.6 10.2
2002-08-23 06:56:02 51°13.218 2°50.308 242.3 15 240.8 10.1
2002-08-23 06:56:07 51°13.208 2°50.279 242.7 15 241 10.2
2002-08-23 06:56:11 51°13.199 2°50.256 242.3 14.9 240.8 10.2
2002-08-23 06:56:17 51°13.187 2°50.221 241.8 14.9 240.6 10.1
2002-08-23 06:56:22 51°13.177 2°50.193 242.2 14.9 240.4 10.1
2002-08-23 06:56:27 51°13.167 2°50.164 242.3 15 240.7 10.1
2002-08-23 06:56:31 51°13.159 2°50.141 241.7 14.9 240.6 10.2
2002-08-23 06:56:37 51°13.147 2°50.107 241.8 14.9 240.5 10.2
2002-08-23 06:56:42 51°13.137 2°50.078 242.2 14.9 240.8 10.3
2002-08-23 06:56:47 51°13.127 2°50.049 241.8 14.9 240.7 10.3
2002-08-23 06:56:51 51°13.118 2°50.026 242 15 240.2 10.4
2002-08-23 06:56:57 51°13.106 2°49.991 241.7 15 240.3 10.4
2002-08-23 06:57:02 51°13.096 2°49.962 241.3 14.9 240.6 10.3
2002-08-23 06:57:07 51°13.086 2°49.934 241.7 14.9 240.5 10.3
2002-08-23 06:57:12 51°13.075 2°49.905 241.2 15 239.8 10.3
2002-08-23 06:57:16 51°13.067 2°49.882 242.2 15 240.6 10.4
2002-08-23 06:57:22 51°13.054 2°49.848 241.2 15 240 10.5
2002-08-23 06:57:27 51°13.045 2°49.818 241.8 15 240.9 10.4
2002-08-23 06:57:31 51°13.036 2°49.796 242.3 15.1 240.1 10.5
2002-08-23 06:57:37 51°13.024 2°49.761 241.8 14.9 240.9 10.5
2002-08-23 06:57:42 51°13.013 2°49.733 241.5 14.9 239.7 10.5
2002-08-23 06:57:47 51°13.004 2°49.703 242.2 15 240.8 10.5
2002-08-23 06:57:51 51°12.995 2°49.681 242.3 15 240.6 10.6
2002-08-23 06:57:57 51°12.983 2°49.646 242.5 14.9 241 10.6
2002-08-23 06:58:02 51°12.973 2°49.617 242.3 15 241.1 10.6
2002-08-23 06:58:07 51°12.963 2°49.588 242.7 15 241 10.6
2002-08-23 06:58:12 51°12.953 2°49.559 242 14.9 241.2 10.6
2002-08-23 06:58:17 51°12.943 2°49.531 241.7 14.9 240.4 10.6
2002-08-23 06:58:22 51°12.933 2°49.501 242.3 15 240.9 10.6
2002-08-23 06:58:27 51°12.923 2°49.473 241.7 15 240.7 10.7
2002-08-23 06:58:31 51°12.914 2°49.45 241.2 14.9 240.4 10.6
2002-08-23 06:58:37 51°12.902 2°49.415 242.3 15 240.7 10.6
2002-08-23 06:58:42 51°12.892 2°49.386 241.5 15 240.4 10.7
2002-08-23 06:58:47 51°12.882 2°49.357 241.5 15 240.3 10.7
2002-08-23 06:58:51 51°12.873 2°49.334 242 15 240.4 10.7
2002-08-23 06:58:56 51°12.863 2°49.306 241.8 14.9 240.4 10.7
2002-08-23 06:59:02 51°12.851 2°49.272 241.3 14.9 239.8 10.7
2002-08-23 06:59:07 51°12.84 2°49.243 241.8 15 239.9 10.7
2002-08-23 06:59:12 51°12.83 2°49.214 241.7 15 239.9 10.8
2002-08-23 06:59:18 51°12.817 2°49.18 241.5 15 239.9 10.8
2002-08-23 06:59:22 51°12.809 2°49.157 241.8 15 240.1 10.7
2002-08-23 06:59:27 51°12.799 2°49.127 242.2 15 240.9 10.8
2002-08-23 06:59:31 51°12.791 2°49.104 242 15 240.5 10.7
2002-08-23 06:59:36 51°12.781 2°49.075 242.5 15.1 241 10.8
2002-08-23 06:59:41 51°12.771 2°49.046 242.3 15.1 241.2 10.8
2002-08-23 06:59:47 51°12.758 2°49.011 242 15.1 240.8 10.9
2002-08-23 06:59:51 51°12.75 2°48.988 242.3 15.1 240.7 10.7
2002-08-23 06:59:57 51°12.738 2°48.953 242.3 15.1 241 10.8
2002-08-23 07:00:02 51°12.728 2°48.924 242 15.1 240.8 10.8
2002-08-23 07:00:07 51°12.717 2°48.895 242 15.1 240.9 10.9
2002-08-23 07:00:11 51°12.709 2°48.871 242.2 15.1 240.5 10.9
2002-08-23 07:00:17 51°12.697 2°48.836 242.2 15.1 241 10.8
2002-08-23 07:00:22 51°12.687 2°48.807 242 15.1 240.6 10.9
2002-08-23 07:00:27 51°12.676 2°48.778 242.2 15.1 240.8 11
2002-08-23 07:00:32 51°12.666 2°48.749 241.8 15.2 240.5 11
2002-08-23 07:00:35 51°12.66 2°48.731 242.2 15.2 240.9 11
2002-08-23 07:00:42 51°12.645 2°48.691 241.5 15.2 240.1 10.9
2002-08-23 07:00:47 51°12.635 2°48.661 241.5 15.2 240.5 11
2002-08-23 07:00:51 51°12.626 2°48.638 241.8 15.2 240.3 11
2002-08-23 07:00:57 51°12.614 2°48.603 241.5 15.2 240.2 11
2002-08-23 07:01:02 51°12.603 2°48.574 241.5 15.2 240.3 11
2002-08-23 07:01:07 51°12.593 2°48.545 241.8 15.2 240.4 11.1
2002-08-23 07:01:12 51°12.582 2°48.516 241.8 15.1 240 11.1
2002-08-23 07:01:17 51°12.572 2°48.487 241.3 15.1 240.2 11
2002-08-23 07:01:23 51°12.56 2°48.452 241.7 15.2 240.1 11
2002-08-23 07:01:27 51°12.552 2°48.429 242 15.1 240.5 11.1
2002-08-23 07:01:31 51°12.543 2°48.406 241.5 15.1 240.1 11.1
2002-08-23 07:01:37 51°12.531 2°48.371 242 15.1 240.3 11.1
2002-08-23 07:01:42 51°12.52 2°48.342 242 15.1 240.7 11.1
2002-08-23 07:01:47 51°12.51 2°48.313 241.5 15.1 240.3 11.1
2002-08-23 07:01:51 51°12.502 2°48.29 242 15.2 240.8 11.1
2002-08-23 07:01:55 51°12.494 2°48.266 241.8 15.1 240.3 11.2
2002-08-23 07:02:02 51°12.479 2°48.226 241.5 15 240.6 11.2
2002-08-23 07:02:05 51°12.473 2°48.208 242 15.2 240.4 11.2
2002-08-23 07:02:10 51°12.463 2°48.179 242.2 15.1 241.1 11.2
2002-08-23 07:02:17 51°12.448 2°48.139 241.2 15 240 11.1
2002-08-23 07:02:22 51°12.438 2°48.11 241.8 15.1 240.5 11.2
2002-08-23 07:02:25 51°12.432 2°48.092 241.7 15.1 240.3 11.2
2002-08-23 07:02:32 51°12.417 2°48.052 241.7 15 240.7 11.3
2002-08-23 07:02:37 51°12.407 2°48.023 241.8 15 240.1 11.3
2002-08-23 07:02:42 51°12.397 2°47.994 242 15.1 240.9 11.3
2002-08-23 07:02:47 51°12.386 2°47.965 241.7 15 240.4 11.3
2002-08-23 07:02:51 51°12.378 2°47.942 242.2 15.1 240.2 11.3
2002-08-23 07:02:57 51°12.366 2°47.907 242 15.1 240.6 11.3
2002-08-23 07:03:02 51°12.356 2°47.878 241.7 15 240.3 11.3
2002-08-23 07:03:06 51°12.347 2°47.855 241.8 15 240.2 11.4
2002-08-23 07:03:11 51°12.337 2°47.826 241.5 15.1 240.1 11.3
2002-08-23 07:03:17 51°12.325 2°47.791 241.8 15.1 240.5 11.4
2002-08-23 07:03:22 51°12.314 2°47.763 241.3 14.9 240.2 11.4
2002-08-23 07:03:27 51°12.304 2°47.734 241.7 14.9 240.5 11.3
2002-08-23 07:03:32 51°12.294 2°47.706 242.2 15 240.5 11.4
2002-08-23 07:03:37 51°12.283 2°47.677 241.7 15 240.3 11.4
2002-08-23 07:03:42 51°12.273 2°47.648 242 15 240.4 11.4
2002-08-23 07:03:47 51°12.263 2°47.619 241.5 14.9 240.4 11.5
2002-08-23 07:03:52 51°12.253 2°47.591 241.7 14.9 240.2 11.4
2002-08-23 07:03:55 51°12.246 2°47.574 242 14.9 240.1 11.4
2002-08-23 07:04:01 51°12.234 2°47.539 241.3 14.9 240.2 11.4
2002-08-23 07:04:06 51°12.223 2°47.511 241.5 15 239.6 11.5
2002-08-23 07:04:11 51°12.214 2°47.482 241.5 14.9 240.4 11.4
2002-08-23 07:04:15 51°12.205 2°47.46 241.2 14.9 239.7 11.3
2002-08-23 07:04:22 51°12.191 2°47.419 242 15 240.6 11.4
2002-08-23 07:04:26 51°12.182 2°47.397 241.5 14.9 239.7 11.4
2002-08-23 07:04:31 51°12.172 2°47.367 241.8 14.9 240.2 11.4
2002-08-23 07:04:35 51°12.164 2°47.345 241.5 15 240 11.5
2002-08-23 07:04:42 51°12.149 2°47.304 241.8 15 240 11.5
2002-08-23 07:04:47 51°12.139 2°47.275 241.7 15 240.3 11.5
2002-08-23 07:04:52 51°12.129 2°47.246 241.8 15.1 240.5 11.4
2002-08-23 07:04:57 51°12.118 2°47.217 243.2 15.3 241 11.5
2002-08-23 07:05:02 51°12.108 2°47.187 243.7 15.3 241.4 11.5
2002-08-23 07:05:07 51°12.099 2°47.157 244 15.3 242.1 11.4
2002-08-23 07:05:12 51°12.089 2°47.127 244.3 15.3 242.5 11.5
2002-08-23 07:05:15 51°12.083 2°47.108 245 15.5 243 11.5
2002-08-23 07:05:22 51°12.069 2°47.065 245.5 15.6 243.3 11.5
2002-08-23 07:05:27 51°12.06 2°47.034 245.7 15.6 243.5 11.5
2002-08-23 07:05:30 51°12.054 2°47.016 246.2 15.6 244.2 11.5
2002-08-23 07:05:35 51°12.045 2°46.985 245.7 15.5 243.5 11.5
2002-08-23 07:05:42 51°12.031 2°46.942 245.8 15.6 243.8 11.5
2002-08-23 07:05:47 51°12.021 2°46.91 245.8 15.7 243.9 11.5
2002-08-23 07:05:52 51°12.012 2°46.879 245.5 15.7 243.5 11.4
2002-08-23 07:05:57 51°12.002 2°46.848 245.5 15.7 243.7 11.5
2002-08-23 07:06:02 51°11.992 2°46.818 244.7 15.7 243.1 11.5
2002-08-23 07:06:06 51°11.985 2°46.792 245.3 15.7 243.5 11.5
2002-08-23 07:06:12 51°11.973 2°46.755 245 15.8 243.2 11.5
2002-08-23 07:06:17 51°11.963 2°46.724 245.3 15.8 243.6 11.5
2002-08-23 07:06:22 51°11.953 2°46.693 245.2 15.8 243.4 11.5
2002-08-23 07:06:27 51°11.943 2°46.662 244.8 15.8 243.1 11.5
2002-08-23 07:06:32 51°11.934 2°46.63 245.3 15.8 243.6 11.6
2002-08-23 07:06:37 51°11.924 2°46.599 245.3 15.8 243.4 11.6
2002-08-23 07:06:42 51°11.914 2°46.568 245 15.8 243.2 11.6
2002-08-23 07:06:46 51°11.906 2°46.543 245.2 15.8 243.7 11.6
2002-08-23 07:06:52 51°11.894 2°46.505 246 15.8 243.5 11.6
2002-08-23 07:06:55 51°11.889 2°46.486 247.8 15.8 245.8 11.5
2002-08-23 07:07:02 51°11.876 2°46.441 249.2 15.9 245.9 11.6
2002-08-23 07:07:06 51°11.87 2°46.414 250.2 15.9 247.9 11.6
2002-08-23 07:07:12 51°11.86 2°46.376 250.3 15.7 248 11.6
2002-08-23 07:07:17 51°11.852 2°46.344 250.5 15.7 248 11.5
2002-08-23 07:07:22 51°11.845 2°46.311 251.2 15.8 248.8 11.5
2002-08-23 07:07:27 51°11.836 2°46.278 251.3 15.9 248.7 11.5
2002-08-23 07:07:31 51°11.83 2°46.252 251.3 15.9 248.8 11.6
2002-08-23 07:07:37 51°11.82 2°46.213 251.2 15.8 248.7 11.6
2002-08-23 07:07:42 51°11.812 2°46.18 251.5 15.8 249 11.6
2002-08-23 07:07:46 51°11.806 2°46.154 251.5 15.9 249 11.5
2002-08-23 07:07:50 51°11.8 2°46.128 251.8 16 249.2 11.5
2002-08-23 07:07:57 51°11.789 2°46.082 252.3 15.9 249.6 11.6
2002-08-23 07:08:01 51°11.783 2°46.056 252 15.8 249.1 11.6
2002-08-23 07:08:06 51°11.775 2°46.023 251.7 15.8 249.6 11.6
2002-08-23 07:08:12 51°11.766 2°45.983 251.8 15.9 249.2 11.6
2002-08-23 07:08:17 51°11.758 2°45.95 251.7 15.9 249.6 11.5
2002-08-23 07:08:22 51°11.75 2°45.918 251.7 15.9 248.8 11.6
2002-08-23 07:08:27 51°11.742 2°45.885 251.3 15.8 249.1 11.5
2002-08-23 07:08:32 51°11.734 2°45.852 251 15.8 248.8 11.5
2002-08-23 07:08:34 51°11.731 2°45.839 251.8 15.9 249.3 11.5
2002-08-23 07:08:42 51°11.718 2°45.787 251.3 15.9 249.1 11.5
2002-08-23 07:08:47 51°11.711 2°45.754 251.7 15.8 249.1 11.5
2002-08-23 07:08:51 51°11.705 2°45.728 251.7 15.8 249.3 11.6
2002-08-23 07:08:57 51°11.695 2°45.689 251.5 15.8 249.2 11.5
2002-08-23 07:09:02 51°11.687 2°45.656 251.5 15.8 248.7 11.6
2002-08-23 07:09:07 51°11.68 2°45.623 251.2 15.8 249.1 11.6
2002-08-23 07:09:12 51°11.671 2°45.591 250.5 15.8 248.7 11.6
2002-08-23 07:09:18 51°11.662 2°45.552 251.5 15.8 249 11.6
2002-08-23 07:09:22 51°11.656 2°45.526 251.2 15.8 249.1 11.6
2002-08-23 07:09:27 51°11.648 2°45.493 250.8 15.8 248.9 11.6
2002-08-23 07:09:30 51°11.643 2°45.473 251.2 15.9 248.9 11.6
2002-08-23 07:09:37 51°11.632 2°45.428 251.5 15.9 249.3 11.6
2002-08-23 07:09:42 51°11.624 2°45.395 251 15.8 248.9 11.6
2002-08-23 07:09:47 51°11.617 2°45.363 250.8 15.7 249.1 11.5
2002-08-23 07:09:51 51°11.61 2°45.337 251.3 15.7 249 11.6
2002-08-23 07:09:57 51°11.601 2°45.298 251.3 15.8 249 11.5
2002-08-23 07:10:02 51°11.593 2°45.265 251.3 15.8 249.3 11.5
2002-08-23 07:10:06 51°11.587 2°45.239 251.5 15.8 249.1 11.6
2002-08-23 07:10:11 51°11.579 2°45.207 251.3 15.7 249.4 11.5
2002-08-23 07:10:17 51°11.57 2°45.168 251.3 15.7 249.1 11.5
2002-08-23 07:10:22 51°11.562 2°45.135 251 15.8 249.2 11.5
2002-08-23 07:10:27 51°11.554 2°45.102 250.8 15.7 249.5 11.5
2002-08-23 07:10:31 51°11.548 2°45.077 250.5 15.7 248.4 11.4
2002-08-23 07:10:37 51°11.539 2°45.038 250.8 15.6 249.2 11.5
2002-08-23 07:10:42 51°11.53 2°45.006 250.7 15.7 248.3 11.5
2002-08-23 07:10:46 51°11.525 2°44.98 251.7 15.8 249.3 11.5
2002-08-23 07:10:51 51°11.517 2°44.947 250.8 15.7 249.1 11.5
2002-08-23 07:10:57 51°11.507 2°44.909 250.5 15.6 248.7 11.5
2002-08-23 07:11:02 51°11.5 2°44.876 251.3 15.7 249.4 11.4
2002-08-23 07:11:07 51°11.491 2°44.844 251.3 15.8 249.1 11.4
2002-08-23 07:11:11 51°11.486 2°44.818 251.2 15.8 249.4 11.4
2002-08-23 07:11:17 51°11.476 2°44.78 250.3 15.6 248.4 11.5
2002-08-23 07:11:22 51°11.468 2°44.747 250.5 15.6 248.7 11.4
2002-08-23 07:11:26 51°11.462 2°44.721 251 15.7 249.1 11.4
2002-08-23 07:11:31 51°11.454 2°44.689 252 15.7 249.6 11.4
2002-08-23 07:11:37 51°11.446 2°44.649 252.8 15.7 250.5 11.4
2002-08-23 07:11:42 51°11.439 2°44.617 253.5 15.7 250.7 11.5
2002-08-23 07:11:47 51°11.432 2°44.584 254.3 15.7 251.4 11.4
2002-08-23 07:11:52 51°11.425 2°44.551 254 15.6 251.5 11.5
2002-08-23 07:11:57 51°11.418 2°44.519 254.2 15.6 251.6 11.4
2002-08-23 07:12:02 51°11.412 2°44.486 254.5 15.7 251.9 11.5
2002-08-23 07:12:06 51°11.406 2°44.459 253.8 15.7 251.7 11.5
2002-08-23 07:12:11 51°11.399 2°44.427 254.2 15.6 252 11.4
2002-08-23 07:12:17 51°11.391 2°44.387 254 15.6 251.7 11.5
2002-08-23 07:12:22 51°11.385 2°44.354 254.3 15.7 251.9 11.4
2002-08-23 07:12:27 51°11.378 2°44.321 254.2 15.7 252 11.4
2002-08-23 07:12:31 51°11.372 2°44.295 254.7 15.6 251.8 11.5
2002-08-23 07:12:37 51°11.365 2°44.256 254 15.6 251.9 11.4
2002-08-23 07:12:42 51°11.357 2°44.223 254.3 15.7 251.8 11.4
2002-08-23 07:12:47 51°11.351 2°44.19 254.5 15.7 252.4 11.4
2002-08-23 07:12:52 51°11.344 2°44.157 254 15.7 251.9 11.4
2002-08-23 07:12:57 51°11.337 2°44.124 254.2 15.7 251.7 11.4
2002-08-23 07:13:02 51°11.331 2°44.091 254.3 15.7 251.8 11.4
2002-08-23 07:13:06 51°11.325 2°44.065 254.2 15.7 251.7 11.4
2002-08-23 07:13:12 51°11.317 2°44.025 254 15.7 251.8 11.4
2002-08-23 07:13:18 51°11.309 2°43.985 254.3 15.7 252 11.4
2002-08-23 07:13:22 51°11.303 2°43.959 254.3 15.7 251.7 11.4
2002-08-23 07:13:26 51°11.298 2°43.932 254.5 15.8 252.2 11.4
2002-08-23 07:13:31 51°11.291 2°43.899 254.3 15.8 252 11.4
2002-08-23 07:13:35 51°11.286 2°43.873 253.5 15.7 251.5 11.4
2002-08-23 07:13:42 51°11.276 2°43.827 253.8 15.7 251.7 11.4
2002-08-23 07:13:47 51°11.269 2°43.794 253.7 15.8 251.5 11.3
2002-08-23 07:13:52 51°11.262 2°43.761 254 15.8 251.7 11.3
2002-08-23 07:13:57 51°11.256 2°43.728 254.2 15.9 251.7 11.4
2002-08-23 07:14:02 51°11.249 2°43.695 254 15.8 252 11.4
2002-08-23 07:14:07 51°11.242 2°43.662 254 15.7 251.7 11.4
2002-08-23 07:14:12 51°11.235 2°43.629 253.7 15.7 252 11.3
2002-08-23 07:14:17 51°11.228 2°43.596 253.7 15.8 251.3 11.2
2002-08-23 07:14:22 51°11.221 2°43.562 254.3 15.9 251.9 11.3
2002-08-23 07:14:27 51°11.214 2°43.529 253.8 15.8 251.4 11.3
2002-08-23 07:14:31 51°11.209 2°43.503 253.8 15.8 252.1 11.3
2002-08-23 07:14:37 51°11.201 2°43.463 254 15.8 251.7 11.3
2002-08-23 07:14:42 51°11.194 2°43.43 253.8 15.7 251.9 11.3
2002-08-23 07:14:47 51°11.187 2°43.397 253.7 15.8 251.5 11.3
2002-08-23 07:14:51 51°11.182 2°43.371 253.5 15.8 251.6 11.3
2002-08-23 07:14:58 51°11.172 2°43.324 253.5 15.8 251.2 11.3
2002-08-23 07:15:02 51°11.166 2°43.298 253.7 15.8 251.6 11.3
2002-08-23 07:15:07 51°11.159 2°43.264 253.7 15.9 251.4 11.4
2002-08-23 07:15:11 51°11.154 2°43.238 253.7 15.8 251.8 11.4
2002-08-23 07:15:17 51°11.146 2°43.199 254 15.7 251.7 11.3
2002-08-23 07:15:22 51°11.139 2°43.166 254 15.7 252 11.3
2002-08-23 07:15:27 51°11.132 2°43.133 253.7 15.8 252 11.3
2002-08-23 07:15:32 51°11.126 2°43.099 253.8 15.9 251.6 11.3
2002-08-23 07:15:37 51°11.119 2°43.066 254.2 15.9 252.4 11.3
2002-08-23 07:15:42 51°11.112 2°43.033 254.2 15.9 251.5 11.3
2002-08-23 07:15:47 51°11.105 2°42.999 254 15.8 252.1 11.4
2002-08-23 07:15:52 51°11.099 2°42.967 253.8 15.7 252 11.4
2002-08-23 07:15:57 51°11.091 2°42.934 253.3 15.7 251.1 11.3
2002-08-23 07:16:02 51°11.085 2°42.9 253.8 15.8 252.1 11.3
2002-08-23 07:16:07 51°11.077 2°42.867 254 15.9 251.7 11.3
2002-08-23 07:16:11 51°11.073 2°42.841 254.2 15.9 252 11.3
2002-08-23 07:16:15 51°11.067 2°42.815 254.5 15.8 252.6 11.3
2002-08-23 07:16:22 51°11.058 2°42.768 255.2 15.8 252.3 11.4
2002-08-23 07:16:26 51°11.055 2°42.74 258.2 15.7 256 11.3
2002-08-23 07:16:31 51°11.049 2°42.707 262.5 15.6 258.1 11.3
2002-08-23 07:16:35 51°11.048 2°42.679 266.2 15.6 262.1 11.3
2002-08-23 07:16:42 51°11.045 2°42.631 268.3 15.6 264.3 11.2
2002-08-23 07:16:47 51°11.045 2°42.597 273 15.7 267.2 11.3
2002-08-23 07:16:52 51°11.045 2°42.562 275.5 15.6 270.4 11.3
2002-08-23 07:16:57 51°11.046 2°42.528 277.7 15.5 272.4 11.3
2002-08-23 07:17:02 51°11.047 2°42.494 279.3 15.4 273.4 11.4
2002-08-23 07:17:07 51°11.049 2°42.46 279.3 15.5 274.4 11.3
2002-08-23 07:17:10 51°11.049 2°42.44 278.7 15.5 273.6 11.4
2002-08-23 07:17:17 51°11.051 2°42.392 277.3 15.6 273.1 11.3
2002-08-23 07:17:22 51°11.052 2°42.357 277.3 15.6 272.5 11.4
2002-08-23 07:17:27 51°11.053 2°42.323 278.3 15.5 273.1 11.3
2002-08-23 07:17:31 51°11.055 2°42.296 280.3 15.4 274.6 11.2
2002-08-23 07:17:35 51°11.056 2°42.27 280.2 14.9 275.2 11.2
2002-08-23 07:17:42 51°11.059 2°42.226 280.7 14.4 275.3 11.1
2002-08-23 07:17:47 51°11.061 2°42.197 281.2 13.6 275.3 11.1
2002-08-23 07:17:51 51°11.062 2°42.174 281.2 13 276 11.1
2002-08-23 07:17:55 51°11.064 2°42.152 282.5 12.3 276.5 11.2
2002-08-23 07:18:05 51°11.069 2°42.103 289 11.2 280.7 11.2
2002-08-23 07:18:10 51°11.073 2°42.082 296.3 10.6 284.4 11.2
2002-08-23 07:18:13 51°11.076 2°42.071 303.7 9.6 291.7 11.1
2002-08-23 07:18:22 51°11.087 2°42.04 313.3 8.6 299.3 11.1
2002-08-23 07:18:27 51°11.094 2°42.027 320.3 8.1 305.4 11.1
2002-08-23 07:18:32 51°11.102 2°42.014 328.8 7.9 312.4 11.1
2002-08-23 07:18:37 51°11.11 2°42.004 337.7 7.8 321.4 11.1
2002-08-23 07:18:42 51°11.12 2°41.997 348 7.7 329.1 11
2002-08-23 07:18:47 51°11.13 2°41.993 358.5 7.5 339.1 10.8
2002-08-23 07:18:52 51°11.14 2°41.991 7.7 7.1 350.9 10.9
2002-08-23 07:18:57 51°11.149 2°41.992 17 6.7 359.5 10.9
2002-08-23 07:19:01 51°11.155 2°41.994 22.3 6.1 5.9 11
2002-08-23 07:19:06 51°11.163 2°41.996 24.3 5.5 8 11.1
2002-08-23 07:19:12 51°11.171 2°41.997 24.7 5 8.3 11.1
2002-08-23 07:19:14 51°11.174 2°41.998 24.5 4.7 7.2 10.9
2002-08-23 07:19:22 51°11.184 2°42 24.3 4.5 6.7 11
2002-08-23 07:19:27 51°11.189 2°42 23.5 4.1 6.3 10.9
2002-08-23 07:19:32 51°11.194 2°42.001 24.3 3.7 4.4 10.9
2002-08-23 07:19:35 51°11.197 2°42.001 28.3 3.2 5.1 11
2002-08-23 07:19:42 51°11.202 2°42.002 32.7 2.6 6.7 11
2002-08-23 07:19:46 51°11.204 2°42.002 36.8 2 3.8 10.9
2002-08-23 07:19:52 51°11.206 2°42.002 42 1.4 358.4 10.9
2002-08-23 07:19:57 51°11.207 2°42.001 46.5 1.1 351.3 10.9
2002-08-23 07:20:01 51°11.208 2°42.001 50 0.9 350.8 11
2002-08-23 07:20:06 51°11.209 2°42.001 53 0.8 350.2 10.9
2002-08-23 07:20:12 51°11.211 2°42.001 54.7 0.8 350.5 11
2002-08-23 07:20:17 51°11.212 2°42 56 0.8 350.2 11.1
2002-08-23 07:20:22 51°11.213 2°42 56.3 0.7 353.2 11.1
2002-08-23 07:20:27 51°11.214 2°42 57.3 0.7 350.1 11.2
2002-08-23 07:20:31 51°11.214 2°42 58.7 0.6 350.1 11.1
2002-08-23 07:20:37 51°11.215 2°42 59.3 0.5 352.8 11.2
2002-08-23 07:20:42 51°11.216 2°42 60 0.5 354.6 11.2
2002-08-23 07:20:46 51°11.216 2°42 61.3 0.5 359.1 11.2
2002-08-23 07:20:50 51°11.217 2°42 62.5 0.4 8.2 11.2
2002-08-23 07:20:55 51°11.218 2°42 64.5 0.4 2.8 11.1
2002-08-23 07:21:02 51°11.219 2°42 66 0.4 1.3 11.1
2002-08-23 07:21:06 51°11.219 2°42 67.8 0.3 5 11
2002-08-23 07:21:11 51°11.22 2°42 69.5 0.3 9.2 11
2002-08-23 07:21:16 51°11.22 2°42 71.5 0.2 23.7 11
2002-08-23 07:21:22 51°11.22 2°42.001 73.5 0.2 41.4 11
2002-08-23 07:21:27 51°11.22 2°42.001 75.5 0.1 77 11
2002-08-23 07:21:32 51°11.22 2°42.001 77.5 0.1 116.2 11.1
2002-08-23 07:21:35 51°11.22 2°42.001 79.7 0.1 115.9 11
2002-08-23 07:21:42 51°11.219 2°42.002 82 0.2 139.8 11
2002-08-23 07:21:47 51°11.219 2°42.002 84.3 0.2 137.4 11
2002-08-23 07:21:52 51°11.219 2°42.003 86.2 0.3 134.7 11
2002-08-23 07:21:58 51°11.218 2°42.003 88 0.4 145.9 11.1
2002-08-23 07:22:02 51°11.218 2°42.003 89.3 0.4 149.7 11.1
2002-08-23 07:22:07 51°11.217 2°42.003 90.8 0.5 154.5 11.1
2002-08-23 07:22:12 51°11.216 2°42.004 92.3 0.5 152.8 11.1
2002-08-23 07:22:15 51°11.216 2°42.004 93.7 0.5 151.9 11.1
2002-08-23 07:22:22 51°11.214 2°42.005 95.2 0.6 151.2 11.1
2002-08-23 07:22:26 51°11.214 2°42.005 96.3 0.6 148.2 11.1
2002-08-23 07:22:32 51°11.213 2°42.006 97.8 0.6 144.5 11
2002-08-23 07:22:37 51°11.213 2°42.007 99 0.7 145.4 11
2002-08-23 07:22:41 51°11.212 2°42.008 100 0.7 149.1 11
2002-08-23 07:22:47 51°11.211 2°42.009 100.7 0.7 148.9 11
2002-08-23 07:22:51 51°11.21 2°42.009 101.2 0.8 153.4 11.1
2002-08-23 07:22:55 51°11.209 2°42.01 100.8 0.8 149.2 11
2002-08-23 07:23:02 51°11.208 2°42.011 100.2 0.8 150.1 10.9
2002-08-23 07:23:06 51°11.207 2°42.012 99.7 0.8 151.1 10.9
2002-08-23 07:23:11 51°11.206 2°42.013 98.7 0.8 147.9 10.9
2002-08-23 07:23:17 51°11.205 2°42.014 98 0.8 141.7 10.9
2002-08-23 07:23:22 51°11.204 2°42.015 96.7 0.8 138.7 10.9
2002-08-23 07:23:27 51°11.203 2°42.016 95.3 0.8 138.7 10.9
2002-08-23 07:23:32 51°11.202 2°42.017 95 0.8 141.5 11
2002-08-23 07:23:37 51°11.201 2°42.018 94.2 0.8 138.1 11
2002-08-23 07:23:42 51°11.2 2°42.019 93.3 0.8 136.6 10.9
2002-08-23 07:23:47 51°11.199 2°42.02 92.7 0.8 133.9 10.9
2002-08-23 07:23:51 51°11.199 2°42.021 91.8 0.8 131 10.9
2002-08-23 07:23:57 51°11.198 2°42.023 91.3 0.8 127.6 10.9
2002-08-23 07:24:02 51°11.198 2°42.024 90.8 0.8 128.6 11
2002-08-23 07:24:07 51°11.197 2°42.026 89.7 0.8 126.4 11
2002-08-23 07:24:13 51°11.197 2°42.028 89 0.8 123.6 11
2002-08-23 07:24:17 51°11.196 2°42.03 88.5 0.8 124.2 10.9
2002-08-23 07:24:22 51°11.196 2°42.031 87.8 0.8 121.1 11
2002-08-23 07:24:26 51°11.196 2°42.033 87.3 0.8 120.1 11
2002-08-23 07:24:32 51°11.196 2°42.035 86.7 0.8 117.9 11
2002-08-23 07:24:37 51°11.196 2°42.037 86 0.8 118.7 11.1
2002-08-23 07:24:42 51°11.196 2°42.039 85.2 0.8 112.6 11.1
2002-08-23 07:24:47 51°11.195 2°42.04 84.7 0.8 113.9 11.2
2002-08-23 07:24:51 51°11.195 2°42.041 84 0.8 108.3 11.2
2002-08-23 07:24:55 51°11.194 2°42.042 83.2 0.8 111.5 11.1
2002-08-23 07:25:02 51°11.194 2°42.044 82.3 0.8 102.6 11.1
2002-08-23 07:25:07 51°11.193 2°42.046 81.7 0.8 105.9 11.1
2002-08-23 07:25:12 51°11.193 2°42.047 81.3 0.8 93.4 11
2002-08-23 07:25:17 51°11.193 2°42.049 80.5 0.8 94.9 10.9
2002-08-23 07:25:22 51°11.193 2°42.051 79.8 0.8 87.6 10.8
2002-08-23 07:25:26 51°11.193 2°42.052 79.2 0.8 89.6 10.9
2002-08-23 07:25:32 51°11.193 2°42.054 78.2 0.8 88.2 10.9
2002-08-23 07:25:35 51°11.193 2°42.055 77.8 0.8 89.8 10.9
2002-08-23 07:25:42 51°11.193 2°42.058 76.8 0.9 83.5 10.9
2002-08-23 07:25:47 51°11.193 2°42.06 76.3 0.8 83.9 11
2002-08-23 07:25:51 51°11.193 2°42.062 75.8 0.8 90 11
2002-08-23 07:25:55 51°11.193 2°42.063 75.3 0.7 81.3 11.1
2002-08-23 07:26:02 51°11.193 2°42.065 74.7 0.7 95.3 11.1
2002-08-23 07:26:05 51°11.194 2°42.066 74.5 0.7 82.9 11.2
2002-08-23 07:26:12 51°11.194 2°42.068 74.3 0.7 82.2 11.1
2002-08-23 07:26:17 51°11.194 2°42.07 74.2 0.8 80.7 11
2002-08-23 07:26:22 51°11.194 2°42.072 75 0.8 79.3 10.9
2002-08-23 07:26:27 51°11.194 2°42.074 76 0.9 79.5 10.9
2002-08-23 07:26:32 51°11.194 2°42.075 77.5 0.9 86.5 10.8
2002-08-23 07:26:38 51°11.195 2°42.078 79 0.8 84 10.8
2002-08-23 07:26:42 51°11.194 2°42.079 80.8 0.8 93.4 10.9
2002-08-23 07:26:47 51°11.194 2°42.081 82.2 0.8 93.4 10.9
2002-08-23 07:26:52 51°11.194 2°42.082 84.2 0.8 100.3 10.8
2002-08-23 07:26:55 51°11.193 2°42.084 86 0.8 106 10.9
2002-08-23 07:27:02 51°11.193 2°42.086 87.3 0.8 112.8 11
2002-08-23 07:27:07 51°11.193 2°42.087 88.5 0.7 114.8 11
2002-08-23 07:27:12 51°11.192 2°42.089 89.8 0.7 122.7 10.9
2002-08-23 07:27:22 51°11.191 2°42.091 92.3 0.7 129.1 11
2002-08-23 07:27:27 51°11.19 2°42.092 93.2 0.7 133.4 11.1
2002-08-23 07:27:32 51°11.189 2°42.093 94.2 0.7 137.6 11.1
2002-08-23 07:27:37 51°11.188 2°42.094 95.5 0.7 140.7 11.1
2002-08-23 07:27:42 51°11.187 2°42.095 96.3 0.7 144 11
2002-08-23 07:27:46 51°11.187 2°42.095 97.5 0.7 146.7 11.1
2002-08-23 07:27:52 51°11.185 2°42.096 98.5 0.7 152.6 11.1
2002-08-23 07:27:55 51°11.185 2°42.096 99.7 0.7 155.7 11.1
2002-08-23 07:28:04 51°11.183 2°42.097 100.8 0.7 157.2 11.2
2002-08-23 07:28:10 51°11.182 2°42.098 102 0.8 161.1 11.1
2002-08-23 07:28:15 51°11.181 2°42.098 103.2 0.8 163.3 11.1
2002-08-23 07:28:20 51°11.18 2°42.098 104 0.8 165.4 11.1
2002-08-23 07:28:25 51°11.178 2°42.099 105 0.8 167.9 11.1
2002-08-23 07:28:30 51°11.177 2°42.099 105.8 0.8 170.9 11.1
2002-08-23 07:28:34 51°11.177 2°42.1 106.7 0.8 173.7 11.1
2002-08-23 07:28:38 51°11.176 2°42.099 107.3 0.8 175 11
2002-08-23 07:28:45 51°11.174 2°42.099 108.7 0.9 177.9 10.9
2002-08-23 07:28:50 51°11.172 2°42.1 110 0.9 178.6 10.9
2002-08-23 07:28:53 51°11.171 2°42.099 110.7 0.9 181 11
2002-08-23 07:28:59 51°11.17 2°42.099 111.8 0.9 183.8 11.1
2002-08-23 07:29:05 51°11.169 2°42.099 112.7 0.9 183.1 11.1
2002-08-23 07:29:10 51°11.167 2°42.099 113.5 1 186 11.1
2002-08-23 07:29:15 51°11.166 2°42.099 115.2 0.9 187.4 11.1
2002-08-23 07:29:20 51°11.164 2°42.098 116 1 189.6 11.2
2002-08-23 07:29:25 51°11.163 2°42.098 116.8 1 189.6 11.2
2002-08-23 07:29:30 51°11.161 2°42.097 117.7 1.1 191.8 11.1
2002-08-23 07:29:35 51°11.16 2°42.097 119.2 1.1 193.4 11.1
2002-08-23 07:29:40 51°11.159 2°42.096 119.7 1 193.1 11.1
2002-08-23 07:29:45 51°11.157 2°42.096 121 1.2 195.8 11.2
2002-08-23 07:29:50 51°11.156 2°42.095 122.3 1 195.6 11.1
2002-08-23 07:29:53 51°11.155 2°42.094 122.5 1.1 197.5 11.1
2002-08-23 07:29:59 51°11.153 2°42.093 124.3 1.1 198.3 11.2
2002-08-23 07:30:05 51°11.151 2°42.092 125.3 1.2 199.5 11.2
2002-08-23 07:30:10 51°11.15 2°42.092 125.8 1.1 199.3 11.2
2002-08-23 07:30:15 51°11.148 2°42.09 127.2 1.2 201.8 11.1
2002-08-23 07:30:18 51°11.147 2°42.09 128.3 1.2 201.5 11
2002-08-23 07:30:25 51°11.145 2°42.089 128.8 1.2 202.1 11
2002-08-23 07:30:30 51°11.143 2°42.087 130 1.2 203 11.3
2002-08-23 07:30:35 51°11.142 2°42.086 130.8 1.3 203.9 11.2
2002-08-23 07:30:40 51°11.14 2°42.086 131.7 1.2 203.7 11.2
2002-08-23 07:30:45 51°11.139 2°42.084 132.2 1.3 205.9 11.3
2002-08-23 07:30:50 51°11.137 2°42.083 133 1.2 205.4 11.3
2002-08-23 07:30:55 51°11.135 2°42.081 133.2 1.3 207.5 11.3
2002-08-23 07:30:59 51°11.134 2°42.081 133.5 1.3 207.4 11.3
2002-08-23 07:31:05 51°11.132 2°42.079 133.7 1.4 209 11.2
2002-08-23 07:31:10 51°11.131 2°42.078 133.5 1.3 208.7 11.1
2002-08-23 07:31:15 51°11.129 2°42.076 133 1.3 209.7 11.1
2002-08-23 07:31:20 51°11.128 2°42.075 133.2 1.2 210 11.1
2002-08-23 07:31:25 51°11.126 2°42.073 132.5 1.3 210.6 11.1
2002-08-23 07:31:30 51°11.125 2°42.072 132.2 1.3 210.4 11.3
2002-08-23 07:31:35 51°11.123 2°42.071 131.3 1.3 211.2 11.2
2002-08-23 07:31:39 51°11.122 2°42.069 130.7 1.2 211.4 11.2
2002-08-23 07:31:45 51°11.12 2°42.068 130.3 1.3 212.1 11.2
2002-08-23 07:31:50 51°11.119 2°42.066 129.5 1.2 212.2 11.3
2002-08-23 07:31:55 51°11.117 2°42.065 128.5 1.2 212.4 11.2
2002-08-23 07:32:01 51°11.115 2°42.063 127.7 1.3 212.9 11.2
2002-08-23 07:32:05 51°11.115 2°42.062 127.3 1.2 213.6 11.2
2002-08-23 07:32:10 51°11.113 2°42.06 126.5 1.2 213.9 11.2
2002-08-23 07:32:15 51°11.112 2°42.059 125.3 1.2 214.2 11.2
2002-08-23 07:32:19 51°11.111 2°42.057 124.7 1.2 214.3 11.2
2002-08-23 07:32:25 51°11.109 2°42.056 124 1.2 214.6 11.2
2002-08-23 07:32:30 51°11.108 2°42.054 122.7 1.2 214.9 11.3
2002-08-23 07:32:35 51°11.106 2°42.052 122 1.2 215.4 11.3
2002-08-23 07:32:39 51°11.105 2°42.051 121.2 1.2 215.8 11.2
2002-08-23 07:32:45 51°11.104 2°42.049 120.2 1.2 216.3 11.3
2002-08-23 07:32:50 51°11.102 2°42.048 119.2 1.2 216.4 11.3
2002-08-23 07:32:55 51°11.101 2°42.046 118.3 1.2 216.2 11.3
2002-08-23 07:32:59 51°11.1 2°42.045 117.2 1.2 217.3 11.2
2002-08-23 07:33:05 51°11.099 2°42.043 116 1.1 218.3 10.9
2002-08-23 07:33:10 51°11.097 2°42.042 115.3 1.1 218.9 11.3
2002-08-23 07:33:15 51°11.097 2°42.04 114.3 1.1 219.7 11.2
2002-08-23 07:33:21 51°11.095 2°42.038 113.3 1.1 219.7 11.3
2002-08-23 07:33:25 51°11.094 2°42.037 112.3 1.2 218.9 11.3
2002-08-23 07:33:30 51°11.093 2°42.035 111.3 1.1 220.2 11.3
2002-08-23 07:33:35 51°11.092 2°42.034 110.2 1.1 220.3 11.2
2002-08-23 07:33:39 51°11.091 2°42.033 109 1 222 11.3
2002-08-23 07:33:45 51°11.09 2°42.031 107.5 1 223.6 11.4
2002-08-23 07:33:50 51°11.089 2°42.029 106.8 1 224.7 11.3
2002-08-23 07:33:55 51°11.088 2°42.027 105.8 1 224 11.3
2002-08-23 07:34:00 51°11.087 2°42.026 104.5 1 225.7 11.3
2002-08-23 07:34:05 51°11.086 2°42.024 103.3 1 225.9 11.3
2002-08-23 07:34:10 51°11.085 2°42.023 102 1 226.2 11.4
2002-08-23 07:34:13 51°11.084 2°42.022 100.8 1 227.6 11.4
2002-08-23 07:34:19 51°11.083 2°42.02 99.7 1 227.9 11.3
2002-08-23 07:34:25 51°11.082 2°42.018 98.7 1 227.9 11.4
2002-08-23 07:34:30 51°11.082 2°42.016 97.5 0.9 231.1 11.4
2002-08-23 07:34:35 51°11.081 2°42.015 96.2 0.9 231.1 11.4
2002-08-23 07:34:40 51°11.08 2°42.013 95.2 1 230.6 11.4
2002-08-23 07:34:45 51°11.079 2°42.011 94 0.9 233.9 11.4
2002-08-23 07:34:49 51°11.078 2°42.01 93 1 231.7 11.5
2002-08-23 07:34:55 51°11.077 2°42.008 92 1 232.7 11.4
2002-08-23 07:34:59 51°11.077 2°42.006 90.8 1 232.8 11.4
2002-08-23 07:35:05 51°11.076 2°42.005 89.7 1 234.1 11.3
2002-08-23 07:35:10 51°11.076 2°42.004 88.7 1 233.5 11.4
2002-08-23 07:35:15 51°11.075 2°42.002 87.5 0.9 236.8 11.4
2002-08-23 07:35:19 51°11.074 2°42.001 86.3 1 237.1 11.3
2002-08-23 07:35:25 51°11.073 2°41.998 85.7 1 237 11.3
2002-08-23 07:35:30 51°11.072 2°41.996 84.7 1 236.4 11.3
2002-08-23 07:35:35 51°11.071 2°41.994 83.7 1 238.6 11.3
2002-08-23 07:35:39 51°11.071 2°41.993 82.7 1 238.8 11.4
2002-08-23 07:35:45 51°11.07 2°41.991 81.7 1 237.8 11.4
2002-08-23 07:35:50 51°11.069 2°41.989 80.7 1 239.3 11.4
2002-08-23 07:35:55 51°11.068 2°41.987 79.5 1 239.1 11.4
2002-08-23 07:36:00 51°11.067 2°41.984 78.7 1 240 11.4
2002-08-23 07:36:03 51°11.067 2°41.983 78.2 1 243 11.5
2002-08-23 07:36:10 51°11.066 2°41.98 76.8 1 242 11.5
2002-08-23 07:36:15 51°11.065 2°41.978 75.7 1 243 11.5
2002-08-23 07:36:20 51°11.065 2°41.976 74.3 1 244 11.5
2002-08-23 07:36:25 51°11.064 2°41.974 73.3 1 242.1 11.5
2002-08-23 07:36:30 51°11.063 2°41.972 72.3 1 245 11.5
2002-08-23 07:36:35 51°11.063 2°41.97 71.3 1 243.7 11.5
2002-08-23 07:36:38 51°11.062 2°41.969 70.2 1 245.7 11.5
2002-08-23 07:36:45 51°11.062 2°41.966 69.5 1 245.2 11.4
2002-08-23 07:36:50 51°11.061 2°41.964 68.5 1 249.7 11.4
2002-08-23 07:36:55 51°11.06 2°41.962 67.7 1 245.8 11.4
2002-08-23 07:36:59 51°11.06 2°41.961 67 1 244.3 11.3
2002-08-23 07:37:05 51°11.06 2°41.958 66.3 1 246.9 11.4
2002-08-23 07:37:10 51°11.059 2°41.956 65.7 1 248.4 11.4
2002-08-23 07:37:15 51°11.058 2°41.954 65 1 246.9 11.3
2002-08-23 07:37:19 51°11.058 2°41.952 64.2 1 248.1 11.4
2002-08-23 07:37:25 51°11.057 2°41.95 63.5 1 249.1 11.4
2002-08-23 07:37:30 51°11.057 2°41.948 63.2 1 245.3 11.4
2002-08-23 07:37:35 51°11.056 2°41.946 62.5 1 250.5 11.4
2002-08-23 07:37:40 51°11.056 2°41.944 62.3 1 249.3 11.3
2002-08-23 07:37:45 51°11.055 2°41.942 61.5 1 247.8 11.4
2002-08-23 07:37:50 51°11.055 2°41.94 60.8 1 251.8 11.4
2002-08-23 07:37:55 51°11.054 2°41.938 60.8 1 249.7 11.5
2002-08-23 07:37:59 51°11.054 2°41.936 60.5 1 249 11.4
2002-08-23 07:38:05 51°11.053 2°41.934 60 1 254.1 11.4
2002-08-23 07:38:10 51°11.053 2°41.932 59.8 1 250.9 11.5
2002-08-23 07:38:15 51°11.052 2°41.93 59.3 1 252 11.4
2002-08-23 07:38:18 51°11.052 2°41.928 59.2 1 252.9 11.4
2002-08-23 07:38:25 51°11.051 2°41.926 58.8 1 247.7 11.5
2002-08-23 07:38:29 51°11.051 2°41.924 58.2 1 251.8 11.6
2002-08-23 07:38:35 51°11.05 2°41.921 58.3 1 250.9 11.5
2002-08-23 07:38:39 51°11.05 2°41.92 58.3 1 249.4 11.4
2002-08-23 07:38:45 51°11.05 2°41.917 58.2 1 251.9 11.4
2002-08-23 07:38:50 51°11.049 2°41.915 58.2 1 251.6 11.4
2002-08-23 07:38:55 51°11.049 2°41.913 58 1 251.4 11.4
2002-08-23 07:39:00 51°11.048 2°41.911 57.8 1 250.7 11.5
2002-08-23 07:39:05 51°11.048 2°41.909 58 1 250 11.5
2002-08-23 07:39:10 51°11.048 2°41.907 58.2 1 252.2 11.6
2002-08-23 07:39:15 51°11.047 2°41.906 57.8 1 250.6 11.5
2002-08-23 07:39:19 51°11.047 2°41.904 57.7 1 248.9 11.5
2002-08-23 07:39:25 51°11.046 2°41.901 57.8 1 251.1 11.4
2002-08-23 07:39:30 51°11.046 2°41.9 57.8 1 248.9 11.5
2002-08-23 07:39:35 51°11.045 2°41.897 58 1 251.4 11.5
2002-08-23 07:39:39 51°11.045 2°41.896 58.2 1 250.7 11.4
2002-08-23 07:39:45 51°11.044 2°41.893 58.3 1 251.7 11.4
2002-08-23 07:39:50 51°11.044 2°41.891 58.3 1 252.9 11.4
2002-08-23 07:39:55 51°11.043 2°41.889 58.2 1 250.2 11.6
2002-08-23 07:39:58 51°11.043 2°41.888 58.3 1 251.9 11.5
2002-08-23 07:40:05 51°11.043 2°41.885 58.5 1 252.3 11.4
2002-08-23 07:40:10 51°11.042 2°41.883 58.8 0.9 256.7 11.4
2002-08-23 07:40:15 51°11.042 2°41.882 58.5 0.8 255.1 11.3
2002-08-23 07:40:20 51°11.043 2°41.881 56.7 0.4 288.9 11.3
2002-08-23 07:40:25 51°11.043 2°41.881 54.3 0.5 350.8 11.4
2002-08-23 07:40:30 51°11.044 2°41.882 51 0.7 15.1 11.6
2002-08-23 07:40:34 51°11.046 2°41.882 46 1.1 14.8 11.6
2002-08-23 07:40:40 51°11.048 2°41.883 40.3 1.4 12.3 11.5
2002-08-23 07:40:45 51°11.051 2°41.884 35.2 2.1 11.8 11.5
2002-08-23 07:40:49 51°11.055 2°41.885 28.7 2.9 10.8 11.4
2002-08-23 07:40:55 51°11.062 2°41.886 21.7 3.9 5.9 11.5
2002-08-23 07:40:59 51°11.067 2°41.886 14 5 0.7 11.3
2002-08-23 07:41:05 51°11.078 2°41.883 6.8 6.1 354.8 11.3
2002-08-23 07:41:10 51°11.088 2°41.879 359.2 7 349.7 11.1
2002-08-23 07:41:14 51°11.097 2°41.874 351.3 8.3 341.3 11
2002-08-23 07:41:26 51°11.125 2°41.846 335.3 9.9 326.3 11
2002-08-23 07:41:30 51°11.133 2°41.832 326.5 10.4 320.2 10.9
2002-08-23 07:41:35 51°11.143 2°41.812 317.3 11.1 310.4 10.9
2002-08-23 07:41:41 51°11.152 2°41.784 309.5 11.7 302.7 11
2002-08-23 07:41:45 51°11.158 2°41.764 303.2 12.4 296.7 11
2002-08-23 07:41:50 51°11.165 2°41.737 300.8 12.8 294.3 11
2002-08-23 07:41:55 51°11.173 2°41.71 300.5 13.4 293 11
2002-08-23 07:41:59 51°11.178 2°41.687 298.7 13.7 291.4 11.1
2002-08-23 07:42:03 51°11.183 2°41.664 294 13.9 288.4 11
2002-08-23 07:42:10 51°11.189 2°41.621 287.8 14.2 283.1 11
2002-08-23 07:42:15 51°11.191 2°41.589 281.7 14.3 278.7 10.9
2002-08-23 07:42:20 51°11.191 2°41.557 275 14.4 271.6 11
2002-08-23 07:42:23 51°11.19 2°41.538 267.7 14.5 265.9 11
2002-08-23 07:42:30 51°11.185 2°41.494 263 14.6 261.9 11
2002-08-23 07:42:35 51°11.18 2°41.462 259.2 14.8 257.5 11
2002-08-23 07:42:39 51°11.176 2°41.436 257.5 15 256 11
2002-08-23 07:42:45 51°11.169 2°41.397 256.3 15.1 254.2 11.2
2002-08-23 07:42:50 51°11.162 2°41.366 254.2 15.2 252.6 11.3
2002-08-23 07:42:55 51°11.155 2°41.334 251.5 15.2 250.8 11.4
2002-08-23 07:42:59 51°11.149 2°41.309 249.7 15.3 248.9 11.3
2002-08-23 07:43:04 51°11.141 2°41.277 248.2 15.3 247.3 11.3
2002-08-23 07:43:10 51°11.131 2°41.24 247.5 15.4 247 11.4
2002-08-23 07:43:15 51°11.122 2°41.209 247 15.5 246.1 11.4
2002-08-23 07:43:20 51°11.113 2°41.177 246.5 15.6 245.8 11.5
2002-08-23 07:43:25 51°11.104 2°41.146 245.7 15.6 245.1 11.6
2002-08-23 07:43:30 51°11.094 2°41.115 244 15.6 243.9 11.5
2002-08-23 07:43:35 51°11.084 2°41.085 243 15.5 242.7 11.6
2002-08-23 07:43:39 51°11.076 2°41.061 241.8 15.6 241.7 11.6
2002-08-23 07:43:44 51°11.065 2°41.03 242.2 15.7 241.9 11.6
2002-08-23 07:43:50 51°11.053 2°40.994 243 15.7 241.8 11.7
2002-08-23 07:43:55 51°11.044 2°40.962 243.3 15.7 243 11.7
2002-08-23 07:43:59 51°11.036 2°40.938 245.3 15.7 243.8 11.8
2002-08-23 07:44:05 51°11.025 2°40.9 246.8 15.6 245.7 11.7
2002-08-23 07:44:10 51°11.016 2°40.869 246.8 15.7 245.5 11.7
2002-08-23 07:44:15 51°11.008 2°40.836 247.2 15.7 246.2 11.8
2002-08-23 07:44:20 51°10.998 2°40.805 246.2 15.6 245.4 11.8
2002-08-23 07:44:25 51°10.99 2°40.774 246.7 15.6 245.8 11.9
2002-08-23 07:44:30 51°10.98 2°40.743 246.3 15.6 244.8 11.9
2002-08-23 07:44:35 51°10.972 2°40.711 245.8 15.6 246.1 11.9
2002-08-23 07:44:41 51°10.96 2°40.674 245.8 15.7 244.2 11.9
2002-08-23 07:44:45 51°10.953 2°40.648 246.3 15.7 245.4 12
2002-08-23 07:44:50 51°10.943 2°40.617 245.3 15.7 244.6 12.1
2002-08-23 07:44:55 51°10.934 2°40.586 246.2 15.7 245.1 12.1
2002-08-23 07:45:00 51°10.925 2°40.554 245.8 15.7 244.8 12.1
2002-08-23 07:45:05 51°10.916 2°40.523 245.8 15.7 245.1 12.2
2002-08-23 07:45:10 51°10.906 2°40.492 245.5 15.7 244.6 12.2
2002-08-23 07:45:13 51°10.901 2°40.473 245.8 15.8 245 12.3
2002-08-23 07:45:22 51°10.884 2°40.416 245.8 15.8 244.6 12.3
2002-08-23 07:45:28 51°10.873 2°40.378 245.7 15.7 245.2 12.4
2002-08-23 07:45:33 51°10.863 2°40.347 246.3 15.7 244.9 12.4
2002-08-23 07:45:42 51°10.847 2°40.29 245.8 15.8 244.9 12.6
2002-08-23 07:45:47 51°10.838 2°40.258 246.3 15.9 245.5 12.6
2002-08-23 07:45:52 51°10.829 2°40.226 246.3 15.8 245.2 12.7
2002-08-23 07:46:02 51°10.81 2°40.163 245.8 15.7 244.9 12.8
2002-08-23 07:46:07 51°10.802 2°40.131 246.8 15.8 245.7 12.9
2002-08-23 07:46:12 51°10.792 2°40.1 246.7 15.8 245.5 12.9
2002-08-23 07:46:22 51°10.774 2°40.036 246.5 15.9 245.4 13
2002-08-23 07:46:27 51°10.764 2°40.005 245.8 15.8 244.7 13.1
2002-08-23 07:46:32 51°10.755 2°39.973 246.5 15.8 245.2 13.2
2002-08-23 07:46:42 51°10.737 2°39.91 246.2 15.8 245 13.3
2002-08-23 07:46:47 51°10.728 2°39.877 246.7 15.9 245.4 13.3
2002-08-23 07:46:52 51°10.719 2°39.845 246.5 15.9 245.6 13.4
2002-08-23 07:47:02 51°10.7 2°39.782 246.5 15.9 245.5 13.5
2002-08-23 07:47:08 51°10.689 2°39.743 247 15.9 245.4 13.5
2002-08-23 07:47:13 51°10.68 2°39.712 246 15.7 245.5 13.6
2002-08-23 07:47:22 51°10.664 2°39.654 246.8 15.9 246.1 13.6
2002-08-23 07:47:27 51°10.654 2°39.623 246.2 15.9 245.4 13.6
2002-08-23 07:47:32 51°10.646 2°39.591 246.7 15.9 245.7 13.7
2002-08-23 07:47:42 51°10.627 2°39.527 246.7 15.9 245.7 13.9
2002-08-23 07:47:47 51°10.618 2°39.495 246.3 15.8 245.5 13.8
2002-08-23 07:47:52 51°10.609 2°39.463 246.3 15.8 245.2 14
2002-08-23 07:48:02 51°10.59 2°39.399 246.8 16 245.2 14.2
2002-08-23 07:48:07 51°10.581 2°39.367 246.7 16 245.7 14.3
2002-08-23 07:48:12 51°10.572 2°39.335 247.2 16 246.1 14.3
2002-08-23 07:48:22 51°10.555 2°39.27 248.5 16 247 14.3
2002-08-23 07:48:27 51°10.547 2°39.237 250.7 16 248.4 14.5
2002-08-23 07:48:32 51°10.54 2°39.204 252.7 15.9 250.5 14.3
2002-08-23 07:48:42 51°10.527 2°39.136 255.8 15.9 253.6 14.3
2002-08-23 07:48:47 51°10.521 2°39.102 257.7 15.9 254.2 14.5
2002-08-23 07:48:52 51°10.516 2°39.068 258.5 15.9 255.6 14.6
2002-08-23 07:49:02 51°10.506 2°39 259.3 15.9 256.6 15
2002-08-23 07:49:07 51°10.5 2°38.966 259.7 15.9 256.6 15
2002-08-23 07:49:12 51°10.496 2°38.931 259.8 16 256.9 15
2002-08-23 07:49:22 51°10.486 2°38.862 259.8 16 256.9 14.9
2002-08-23 07:49:28 51°10.48 2°38.822 259.2 15.9 256.7 14.8
2002-08-23 07:49:33 51°10.475 2°38.787 259.8 16 257 15
2002-08-23 07:49:42 51°10.465 2°38.725 259 16 256.6 15.1
2002-08-23 07:49:47 51°10.46 2°38.691 260.2 16 257 15.3
2002-08-23 07:49:52 51°10.455 2°38.657 259.7 15.9 257 15.2
2002-08-23 07:50:02 51°10.446 2°38.588 260.2 16 257.2 15.4
2002-08-23 07:50:07 51°10.44 2°38.553 260 16 256.9 15.7
2002-08-23 07:50:12 51°10.435 2°38.519 260.3 16 257 15.8
2002-08-23 07:50:22 51°10.425 2°38.451 260 16 256.6 15.8
2002-08-23 07:50:27 51°10.421 2°38.416 259.8 16 257.3 15.9
2002-08-23 07:50:32 51°10.415 2°38.382 259.3 16 256.8 15.8
2002-08-23 07:50:42 51°10.405 2°38.313 259.8 16 257 16
2002-08-23 07:50:47 51°10.399 2°38.279 259.3 16 256.5 16.2
2002-08-23 07:50:52 51°10.395 2°38.244 260 16 256.8 16.2
2002-08-23 07:50:57 51°10.389 2°38.21 259.7 16.1 256.5 16.3
2002-08-23 07:51:02 51°10.384 2°38.175 259.5 16 256.5 16.4
2002-08-23 07:51:07 51°10.379 2°38.141 259.3 16 256.3 16.4
2002-08-23 07:51:10 51°10.375 2°38.121 259.7 16.1 256.3 16.6
2002-08-23 07:51:17 51°10.368 2°38.072 259.5 16 256.6 16.7
2002-08-23 07:51:22 51°10.363 2°38.038 258.5 15.9 256 16.7
2002-08-23 07:51:27 51°10.358 2°38.004 259 16 256.3 16.7
2002-08-23 07:51:31 51°10.353 2°37.976 259.5 16.1 256.3 16.6
2002-08-23 07:51:35 51°10.349 2°37.949 259.2 16 256.2 16.8
2002-08-23 07:51:42 51°10.341 2°37.901 259 15.9 255.6 16.9
2002-08-23 07:51:47 51°10.336 2°37.867 259.5 16 256.2 16.9
2002-08-23 07:51:51 51°10.332 2°37.839 259 16 255.6 17
2002-08-23 07:51:55 51°10.328 2°37.812 259.7 16 256.3 16.9
2002-08-23 07:52:02 51°10.32 2°37.764 259.2 16 256 17
2002-08-23 07:52:07 51°10.315 2°37.73 259.3 16 255.9 17.1
2002-08-23 07:52:11 51°10.31 2°37.703 259.5 16 256 17.1
2002-08-23 07:52:15 51°10.306 2°37.675 259.2 16 255.8 17
2002-08-23 07:52:22 51°10.298 2°37.627 258.5 16 255.6 17
2002-08-23 07:52:27 51°10.293 2°37.593 259.3 16 255.8 17
2002-08-23 07:52:31 51°10.289 2°37.565 259.3 16 255.9 17
2002-08-23 07:52:35 51°10.284 2°37.538 259.5 16 256 17
2002-08-23 07:52:42 51°10.277 2°37.49 259.5 16 256.5 17
2002-08-23 07:52:45 51°10.273 2°37.47 259.5 16 255.9 17
2002-08-23 07:52:51 51°10.267 2°37.428 259.3 16 255.8 16.9
2002-08-23 07:52:57 51°10.261 2°37.387 259.5 16 256.1 16.9
2002-08-23 07:53:02 51°10.255 2°37.353 259.3 16 255.6 16.9
2002-08-23 07:53:07 51°10.25 2°37.319 259.3 16 255.8 16.9
2002-08-23 07:53:12 51°10.244 2°37.285 259.3 16 255.8 16.9
2002-08-23 07:53:15 51°10.241 2°37.264 258.8 16 255.5 16.9
2002-08-23 07:53:22 51°10.233 2°37.217 258.8 15.9 255.6 16.9
2002-08-23 07:53:26 51°10.229 2°37.189 258.7 15.9 255.1 16.8
2002-08-23 07:53:31 51°10.223 2°37.155 259 15.9 255.5 16.7
2002-08-23 07:53:37 51°10.216 2°37.115 258.7 15.9 255.2 16.8
2002-08-23 07:53:42 51°10.211 2°37.081 258.8 15.9 255.4 16.8
2002-08-23 07:53:47 51°10.206 2°37.047 258.7 15.9 255.7 16.8
2002-08-23 07:53:51 51°10.2 2°37.02 258.7 15.9 255.4 16.9
2002-08-23 07:53:57 51°10.194 2°36.979 259.2 15.9 255.7 16.9
2002-08-23 07:54:02 51°10.189 2°36.945 259.2 15.9 255.7 16.9
2002-08-23 07:54:06 51°10.185 2°36.917 259.3 15.9 255.9 16.9
2002-08-23 07:54:11 51°10.179 2°36.884 258.8 15.9 255.7 16.9
2002-08-23 07:54:17 51°10.173 2°36.843 258.8 15.9 255.9 16.8
2002-08-23 07:54:22 51°10.167 2°36.809 258.8 15.8 255.5 16.9
2002-08-23 07:54:27 51°10.162 2°36.775 258.7 15.8 255.8 16.9
2002-08-23 07:54:31 51°10.157 2°36.748 259 15.8 255.6 16.9
2002-08-23 07:54:37 51°10.151 2°36.707 258.7 15.9 255.6 16.9
2002-08-23 07:54:42 51°10.146 2°36.673 258.8 15.9 256 16.9
2002-08-23 07:54:47 51°10.14 2°36.639 259.2 15.8 255.9 16.9
2002-08-23 07:54:51 51°10.136 2°36.613 258.8 15.8 255.4 16.8
2002-08-23 07:54:58 51°10.128 2°36.565 258.8 15.8 256.1 16.9
2002-08-23 07:55:02 51°10.124 2°36.538 258.3 15.8 255.3 17.1
2002-08-23 07:55:07 51°10.119 2°36.504 258.7 15.7 255.6 17.1
2002-08-23 07:55:11 51°10.114 2°36.478 258.5 15.7 255.1 16.8
2002-08-23 07:55:17 51°10.107 2°36.438 259 15.7 255.5 17
2002-08-23 07:55:22 51°10.102 2°36.405 258.8 15.5 255.5 16.8
2002-08-23 07:55:27 51°10.096 2°36.372 258.7 15.4 255.4 16.8